Time;durP1;ratioP1;P1;durP2;ratioP2;P2;SDS_P1;SDS_P2;PMS_P1;PMS_P2;Temp;Humidity;BMP_temperature;BMP_pressure;BME280_temperature;BME280_humidity;BME280_pressure;Samples;Min_cycle;Max_cycle;Signal;HPM_P1;HPM_P2
2023/03/16 00:00:13;;;;;;;12.18;2.78;;;3.40;99.90;;;;;;5097273;28;20043;-77
2023/03/16 00:02:42;;;;;;;11.48;2.75;;;3.40;99.90;;;;;;5115856;28;20043;-78
2023/03/16 00:05:12;;;;;;;9.60;3.10;;;3.40;99.90;;;;;;5115576;28;20130;-77
2023/03/16 00:07:40;;;;;;;10.88;3.45;;;3.40;99.90;;;;;;5096912;28;20128;-77
2023/03/16 00:10:07;;;;;;;10.90;3.15;;;3.40;99.90;;;;;;5115627;28;20044;-77
2023/03/16 00:12:33;;;;;;;8.98;3.13;;;3.40;99.90;;;;;;5080527;28;20134;-76
2023/03/16 00:15:00;;;;;;;9.57;2.90;;;3.40;99.90;;;;;;5115269;28;20118;-76
2023/03/16 00:17:25;;;;;;;9.18;3.30;;;3.40;99.90;;;;;;5115031;28;20105;-77
2023/03/16 00:19:56;;;;;;;8.50;3.00;;;3.40;99.90;;;;;;5116017;28;20422;-77
2023/03/16 00:22:27;;;;;;;11.88;3.45;;;3.50;99.90;;;;;;5097483;28;20058;-77
2023/03/16 00:24:53;;;;;;;8.40;3.00;;;3.40;99.90;;;;;;5115663;28;20143;-78
2023/03/16 00:27:21;;;;;;;10.63;3.00;;;3.50;99.90;;;;;;5095912;28;20139;-74
2023/03/16 00:29:48;;;;;;;12.82;3.20;;;3.50;99.90;;;;;;5115074;28;20094;-78
2023/03/16 00:32:19;;;;;;;8.38;3.10;;;3.50;99.90;;;;;;5115846;28;20052;-77
2023/03/16 00:34:46;;;;;;;8.10;3.10;;;3.50;99.90;;;;;;5115569;28;20094;-76
2023/03/16 00:37:14;;;;;;;11.97;3.67;;;3.50;99.90;;;;;;5114941;28;20039;-77
2023/03/16 00:39:44;;;;;;;12.18;3.53;;;3.50;99.90;;;;;;5096722;28;20285;-77
2023/03/16 00:42:13;;;;;;;10.23;3.63;;;3.50;99.90;;;;;;5097059;28;20056;-77
2023/03/16 00:44:40;;;;;;;9.60;3.03;;;3.50;99.90;;;;;;5096420;28;20043;-78
2023/03/16 00:47:07;;;;;;;9.43;3.20;;;3.50;99.90;;;;;;5096715;28;20100;-76
2023/03/16 00:49:34;;;;;;;12.15;3.85;;;3.50;99.90;;;;;;5096409;28;20405;-75
2023/03/16 00:52:01;;;;;;;10.25;3.63;;;3.50;99.90;;;;;;5096689;28;20079;-77
2023/03/16 00:54:28;;;;;;;13.15;4.20;;;3.50;99.90;;;;;;5096136;28;20476;-75
2023/03/16 00:56:54;;;;;;;10.65;3.38;;;3.50;99.90;;;;;;5114771;28;20479;-74
2023/03/16 00:59:20;;;;;;;14.80;3.42;;;3.60;99.90;;;;;;5080213;28;20062;-77
2023/03/16 01:01:46;;;;;;;10.63;3.45;;;3.60;99.90;;;;;;5114431;28;20039;-76
2023/03/16 01:04:12;;;;;;;9.48;3.40;;;3.70;99.90;;;;;;5114501;28;20108;-77
2023/03/16 01:06:40;;;;;;;14.07;3.80;;;3.60;99.90;;;;;;5114276;28;20052;-76
2023/03/16 01:09:06;;;;;;;13.07;3.47;;;3.60;99.90;;;;;;5096161;28;20055;-75
2023/03/16 01:11:34;;;;;;;10.43;3.28;;;3.60;99.90;;;;;;5096584;28;20055;-76
2023/03/16 01:14:00;;;;;;;13.48;3.70;;;3.60;99.90;;;;;;5079307;28;20051;-75
2023/03/16 01:16:27;;;;;;;10.85;3.47;;;3.60;99.90;;;;;;5079267;28;20112;-74
2023/03/16 01:18:53;;;;;;;13.02;3.63;;;3.60;99.90;;;;;;5114608;28;20047;-76
2023/03/16 01:21:20;;;;;;;14.27;3.70;;;3.60;99.90;;;;;;5096058;28;20075;-74
2023/03/16 01:23:46;;;;;;;;;;;3.60;99.90;;;;;;5114753;28;20083;-76
2023/03/16 01:26:14;;;;;;;10.32;3.78;;;3.60;99.90;;;;;;5114863;28;19920;-77
2023/03/16 01:28:39;;;;;;;13.32;4.38;;;3.60;99.90;;;;;;5096147;28;20145;-77
2023/03/16 01:31:11;;;;;;;13.65;4.43;;;3.50;99.90;;;;;;5062033;28;20047;-74
2023/03/16 01:33:37;;;;;;;13.45;4.30;;;3.50;99.90;;;;;;5079572;28;20425;-76
2023/03/16 01:36:05;;;;;;;14.40;4.77;;;3.60;99.90;;;;;;5114305;28;20043;-76
2023/03/16 01:38:32;;;;;;;12.32;4.38;;;3.60;99.90;;;;;;5096238;28;20721;-76
2023/03/16 01:40:59;;;;;;;13.75;4.22;;;3.60;99.90;;;;;;5095930;28;20487;-76
2023/03/16 01:43:27;;;;;;;14.98;4.75;;;3.60;99.90;;;;;;5113834;28;20052;-77
2023/03/16 01:46:05;;;;;;;12.48;4.65;;;3.60;99.90;;;;;;5114406;28;20051;-75
2023/03/16 01:48:51;;;;;;;12.60;4.00;;;3.60;99.90;;;;;;5113828;28;20051;-77
2023/03/16 01:51:36;;;;;;;9.68;3.88;;;3.60;99.90;;;;;;5113892;28;20054;-76
2023/03/16 01:54:25;;;;;;;11.80;4.28;;;3.60;99.90;;;;;;5096362;28;20055;-76
2023/03/16 01:57:13;;;;;;;12.77;4.00;;;3.60;99.90;;;;;;5095808;28;20384;-75
2023/03/16 01:59:48;;;;;;;13.73;4.10;;;3.70;99.90;;;;;;5096053;28;20079;-75
2023/03/16 02:02:20;;;;;;;17.83;4.45;;;3.70;99.90;;;;;;5079262;28;20051;-76
2023/03/16 02:05:01;;;;;;;14.13;4.25;;;3.80;99.90;;;;;;5113485;28;20051;-75
2023/03/16 02:07:29;;;;;;;12.65;4.53;;;3.80;99.90;;;;;;5113704;28;20055;-75
2023/03/16 02:09:59;;;;;;;17.90;4.32;;;3.80;99.90;;;;;;5113334;28;20537;-75
2023/03/16 02:12:26;;;;;;;15.80;4.47;;;3.70;99.90;;;;;;5113563;28;20130;-75
2023/03/16 02:14:52;;;;;;;11.93;4.57;;;3.80;99.90;;;;;;5113415;28;20126;-76
2023/03/16 02:17:21;;;;;;;9.93;3.85;;;3.80;99.90;;;;;;5095250;28;20188;-75
2023/03/16 02:20:09;;;;;;;16.20;4.65;;;3.80;99.90;;;;;;5114075;28;20043;-74
2023/03/16 02:22:38;;;;;;;13.73;4.07;;;3.80;99.90;;;;;;5113467;28;20055;-76
2023/03/16 02:25:04;;;;;;;8.68;3.72;;;3.80;99.90;;;;;;5113460;28;20124;-75
2023/03/16 02:27:42;;;;;;;11.82;4.10;;;3.90;99.90;;;;;;5113453;28;20039;-75
2023/03/16 02:30:17;;;;;;;9.23;3.63;;;3.90;99.90;;;;;;5113861;28;20559;-77
2023/03/16 02:32:46;;;;;;;11.20;3.80;;;3.90;99.90;;;;;;5114184;28;20048;-74
2023/03/16 02:35:12;;;;;;;11.25;3.55;;;3.90;99.90;;;;;;5095406;28;20048;-72
2023/03/16 02:37:38;;;;;;;13.82;4.05;;;4.00;99.90;;;;;;5113198;28;20036;-74
2023/03/16 02:40:26;;;;;;;10.63;3.63;;;4.10;99.90;;;;;;5078791;28;20479;-76
2023/03/16 02:43:05;;;;;;;19.10;4.20;;;4.10;99.90;;;;;;5113985;28;20363;-76
2023/03/16 02:45:55;;;;;;;12.55;4.07;;;4.10;99.90;;;;;;5094899;28;20508;-76
2023/03/16 02:48:41;;;;;;;11.80;3.13;;;4.10;99.90;;;;;;5113583;28;20124;-74
2023/03/16 02:51:07;;;;;;;12.73;4.40;;;4.20;99.90;;;;;;5114482;28;20495;-75
2023/03/16 02:53:33;;;;;;;13.57;4.18;;;4.20;99.90;;;;;;5117313;28;20050;-74
2023/03/16 02:55:58;;;;;;;12.90;3.75;;;4.20;99.90;;;;;;5116734;28;20051;-74
2023/03/16 02:58:24;;;;;;;9.25;3.78;;;4.10;99.90;;;;;;5098814;28;20051;-74
2023/03/16 03:00:50;;;;;;;13.27;3.63;;;4.10;99.90;;;;;;5098838;28;20552;-76
2023/03/16 03:03:15;;;;;;;8.85;3.65;;;4.20;99.90;;;;;;5116929;28;20047;-75
2023/03/16 03:05:41;;;;;;;12.30;4.22;;;4.20;99.90;;;;;;5099051;28;20098;-74
2023/03/16 03:08:07;;;;;;;15.13;3.97;;;4.20;99.90;;;;;;5081280;28;20150;-76
2023/03/16 03:10:33;;;;;;;12.82;3.58;;;4.20;99.90;;;;;;5098260;28;20052;-75
2023/03/16 03:12:59;;;;;;;9.68;3.80;;;4.20;99.90;;;;;;5116550;28;20044;-76
2023/03/16 03:15:24;;;;;;;11.27;3.65;;;4.20;99.90;;;;;;5116691;28;20457;-74
2023/03/16 03:17:50;;;;;;;13.00;3.85;;;4.20;99.90;;;;;;5081686;28;20104;-75
2023/03/16 03:20:16;;;;;;;10.57;3.38;;;4.20;99.90;;;;;;5116869;28;20047;-76
2023/03/16 03:22:47;;;;;;;10.25;3.28;;;4.20;99.90;;;;;;5098512;28;20055;-74
2023/03/16 03:25:16;;;;;;;12.75;3.63;;;4.30;99.90;;;;;;5116654;28;20403;-75
2023/03/16 03:27:43;;;;;;;7.75;3.58;;;4.20;99.90;;;;;;5081816;28;20055;-75
2023/03/16 03:30:11;;;;;;;11.55;3.13;;;4.20;99.90;;;;;;5098372;28;20476;-76
2023/03/16 03:32:38;;;;;;;12.50;3.35;;;4.20;99.90;;;;;;5116429;28;20051;-75
2023/03/16 03:35:04;;;;;;;9.13;2.97;;;4.30;99.90;;;;;;5116180;28;20059;-74
2023/03/16 03:37:30;;;;;;;9.83;3.40;;;4.20;99.90;;;;;;5116135;28;20079;-76
2023/03/16 03:39:56;;;;;;;12.15;3.63;;;4.30;99.90;;;;;;5098325;28;20086;-74
2023/03/16 03:42:24;;;;;;;10.73;3.42;;;4.30;99.90;;;;;;5115986;28;20047;-76
2023/03/16 03:44:51;;;;;;;7.78;3.65;;;4.30;99.90;;;;;;5116006;28;20054;-76
2023/03/16 03:47:17;;;;;;;13.57;3.40;;;4.30;99.90;;;;;;5098304;28;20039;-74
2023/03/16 03:49:43;;;;;;;10.77;3.25;;;4.30;99.90;;;;;;5097932;28;20040;-75
2023/03/16 03:52:09;;;;;;;8.02;3.00;;;4.30;99.90;;;;;;5097757;28;20047;-75
2023/03/16 03:54:35;;;;;;;10.07;3.30;;;4.40;99.90;;;;;;5115902;28;20081;-74
2023/03/16 03:57:02;;;;;;;8.30;3.08;;;4.40;99.90;;;;;;5097639;28;20483;-76
2023/03/16 03:59:27;;;;;;;11.60;3.27;;;4.40;99.90;;;;;;5098694;28;20083;-74
2023/03/16 04:01:53;;;;;;;9.68;3.78;;;4.40;99.90;;;;;;5097523;28;20316;-75
2023/03/16 04:04:19;;;;;;;12.05;3.53;;;4.40;99.90;;;;;;5080580;28;20048;-77
2023/03/16 04:06:45;;;;;;;11.32;3.05;;;4.40;99.90;;;;;;5115443;28;20047;-77
2023/03/16 04:09:11;;;;;;;12.60;3.08;;;4.40;99.90;;;;;;5080470;28;20059;-74
2023/03/16 04:11:37;;;;;;;9.07;3.05;;;4.40;99.90;;;;;;5115747;28;20043;-77
2023/03/16 04:14:03;;;;;;;10.27;3.00;;;4.40;99.90;;;;;;5080258;28;20456;-75
2023/03/16 04:16:29;;;;;;;8.05;3.25;;;4.40;99.90;;;;;;5098142;28;20047;-74
2023/03/16 04:18:56;;;;;;;9.95;3.00;;;4.40;99.90;;;;;;5115510;28;20035;-74
2023/03/16 04:21:22;;;;;;;10.88;3.33;;;4.40;99.90;;;;;;5098080;28;20148;-74
2023/03/16 04:23:49;;;;;;;9.40;3.70;;;4.40;99.90;;;;;;5115769;28;20189;-74
2023/03/16 04:26:15;;;;;;;9.48;3.30;;;4.30;99.90;;;;;;5115304;28;20055;-75
2023/03/16 04:28:42;;;;;;;9.40;3.50;;;4.30;99.90;;;;;;5097228;28;20042;-75
2023/03/16 04:31:09;;;;;;;7.82;3.25;;;4.40;99.90;;;;;;5115116;28;20140;-75
2023/03/16 04:33:36;;;;;;;;;;;4.40;99.90;;;;;;5115468;28;20063;-75
2023/03/16 04:36:02;;;;;;;12.43;3.83;;;4.40;99.90;;;;;;5096917;28;19920;-75
2023/03/16 04:38:29;;;;;;;11.85;3.45;;;4.30;99.90;;;;;;5115437;28;20104;-75
2023/03/16 04:40:55;;;;;;;14.15;3.67;;;4.30;99.90;;;;;;5115699;28;20048;-75
2023/03/16 04:43:21;;;;;;;10.65;3.53;;;4.30;99.90;;;;;;5097141;28;20230;-74
2023/03/16 04:45:47;;;;;;;12.60;3.67;;;4.30;99.90;;;;;;5096951;28;20055;-74
2023/03/16 04:48:13;;;;;;;11.13;4.07;;;4.30;99.90;;;;;;5115408;28;20040;-76
2023/03/16 04:50:39;;;;;;;9.95;3.47;;;4.30;99.90;;;;;;5115123;28;20065;-74
2023/03/16 04:53:05;;;;;;;9.68;3.70;;;4.40;99.90;;;;;;5079661;28;20054;-76
2023/03/16 04:55:31;;;;;;;12.63;3.70;;;4.40;99.90;;;;;;5114790;28;20044;-78
2023/03/16 04:57:57;;;;;;;7.60;2.72;;;4.30;99.90;;;;;;5115277;28;20040;-74
2023/03/16 05:00:24;;;;;;;10.93;4.20;;;4.40;99.90;;;;;;5096595;28;20077;-74
2023/03/16 05:02:53;;;;;;;11.73;4.05;;;4.40;99.90;;;;;;5114604;28;20059;-75
2023/03/16 05:05:20;;;;;;;9.45;3.92;;;4.40;99.90;;;;;;5080459;28;20039;-75
2023/03/16 05:07:46;;;;;;;10.40;3.90;;;4.40;99.90;;;;;;5097318;28;20434;-74
2023/03/16 05:10:14;;;;;;;10.40;4.43;;;4.30;99.90;;;;;;5096218;28;20377;-75
2023/03/16 05:12:40;;;;;;;11.18;3.83;;;4.30;99.90;;;;;;5114460;28;20039;-74
2023/03/16 05:15:06;;;;;;;12.43;3.53;;;4.40;99.90;;;;;;5113967;28;20044;-75
2023/03/16 05:17:33;;;;;;;12.35;3.45;;;4.30;99.90;;;;;;5114395;28;20035;-74
2023/03/16 05:19:59;;;;;;;12.63;3.67;;;4.30;99.90;;;;;;5096136;28;20051;-74
2023/03/16 05:22:24;;;;;;;14.68;3.92;;;4.20;99.90;;;;;;5114385;28;20047;-79
2023/03/16 05:24:50;;;;;;;15.65;4.22;;;4.30;99.90;;;;;;5114662;28;20048;-75
2023/03/16 05:27:16;;;;;;;13.07;3.97;;;4.30;99.90;;;;;;5114108;28;20476;-74
2023/03/16 05:29:45;;;;;;;9.90;3.85;;;4.30;99.90;;;;;;5114240;28;20139;-74
2023/03/16 05:32:15;;;;;;;11.38;3.53;;;4.40;99.90;;;;;;5081111;28;20470;-75
2023/03/16 05:34:42;;;;;;;10.73;4.13;;;4.40;99.90;;;;;;5115302;28;20059;-76
2023/03/16 05:37:08;;;;;;;11.77;4.23;;;4.40;99.90;;;;;;5113912;28;20043;-76
2023/03/16 05:39:34;;;;;;;11.03;4.07;;;4.40;99.90;;;;;;5114190;28;20511;-74
2023/03/16 05:42:00;;;;;;;12.00;3.75;;;4.40;99.90;;;;;;5079297;28;20043;-75
2023/03/16 05:44:26;;;;;;;10.90;3.55;;;4.40;99.90;;;;;;5096293;28;20050;-75
2023/03/16 05:46:51;;;;;;;13.48;4.20;;;4.30;99.90;;;;;;5114450;28;20126;-78
2023/03/16 05:49:17;;;;;;;9.52;3.80;;;4.30;99.90;;;;;;5114353;28;20040;-76
2023/03/16 05:51:43;;;;;;;11.13;3.58;;;4.30;99.90;;;;;;5079464;28;20392;-75
2023/03/16 05:54:08;;;;;;;10.25;3.55;;;4.30;99.90;;;;;;5095947;28;20107;-77
2023/03/16 05:56:34;;;;;;;10.68;3.72;;;4.20;99.90;;;;;;5114211;28;20047;-75
2023/03/16 05:59:00;;;;;;;12.20;4.35;;;4.20;99.90;;;;;;5114324;28;20067;-77
2023/03/16 06:01:26;;;;;;;12.20;3.67;;;4.20;99.90;;;;;;5114171;28;20036;-75
2023/03/16 06:03:52;;;;;;;15.93;4.43;;;4.20;99.90;;;;;;5113712;28;20047;-76
2023/03/16 06:06:20;;;;;;;10.02;4.00;;;4.20;99.90;;;;;;5114297;28;20040;-76
2023/03/16 06:08:46;;;;;;;10.65;3.28;;;4.20;99.90;;;;;;5113328;28;20069;-76
2023/03/16 06:11:12;;;;;;;10.25;3.60;;;4.40;99.90;;;;;;5113518;28;20051;-76
2023/03/16 06:13:38;;;;;;;12.45;4.10;;;4.30;99.90;;;;;;5095445;28;20104;-75
2023/03/16 06:16:05;;;;;;;12.77;4.78;;;4.30;99.90;;;;;;5113584;28;20051;-75
2023/03/16 06:18:32;;;;;;;11.15;3.95;;;4.30;99.90;;;;;;5095617;28;20058;-76
2023/03/16 06:20:57;;;;;;;8.90;3.50;;;4.30;99.90;;;;;;5113635;28;20051;-75
2023/03/16 06:23:23;;;;;;;13.25;3.80;;;4.30;99.90;;;;;;5095423;28;20046;-76
2023/03/16 06:25:50;;;;;;;9.02;2.75;;;4.30;99.90;;;;;;5115739;28;20127;-75
2023/03/16 06:28:16;;;;;;;12.30;4.00;;;4.40;99.90;;;;;;5082754;28;20048;-75
2023/03/16 06:30:42;;;;;;;12.35;3.70;;;4.40;99.90;;;;;;5117636;28;20179;-76
2023/03/16 06:33:08;;;;;;;10.57;4.00;;;4.40;99.90;;;;;;5117377;28;20047;-76
2023/03/16 06:35:33;;;;;;;13.63;3.90;;;4.40;99.90;;;;;;5099437;28;20046;-77
2023/03/16 06:37:59;;;;;;;11.32;4.03;;;4.40;99.90;;;;;;5118145;28;20044;-73
2023/03/16 06:40:25;;;;;;;10.15;3.92;;;4.40;99.90;;;;;;5117384;28;20172;-76
2023/03/16 06:42:51;;;;;;;13.65;3.97;;;4.50;99.90;;;;;;5117461;28;20112;-75
2023/03/16 06:45:20;;;;;;;12.85;3.65;;;4.50;99.90;;;;;;5116181;28;20035;-76
2023/03/16 06:47:46;;;;;;;12.90;4.25;;;4.60;99.90;;;;;;5117274;28;20044;-75
2023/03/16 06:50:12;;;;;;;10.70;3.63;;;4.60;99.90;;;;;;5099564;28;20383;-75
2023/03/16 06:52:37;;;;;;;9.32;3.42;;;4.70;99.90;;;;;;5099275;28;20475;-80
2023/03/16 06:55:04;;;;;;;9.73;3.65;;;4.80;99.90;;;;;;5098878;28;20054;-75
2023/03/16 06:57:30;;;;;;;11.65;4.03;;;4.90;99.90;;;;;;5115741;28;20074;-76
2023/03/16 06:59:55;;;;;;;10.18;3.75;;;5.00;99.90;;;;;;5117013;28;20125;-75
2023/03/16 07:02:22;;;;;;;12.88;3.85;;;4.90;99.90;;;;;;5082131;28;20043;-75
2023/03/16 07:04:49;;;;;;;10.45;4.30;;;4.90;99.90;;;;;;5116932;28;20047;-74
2023/03/16 07:07:16;;;;;;;12.80;3.75;;;4.90;99.90;;;;;;5116809;28;20134;-75
2023/03/16 07:09:42;;;;;;;12.48;3.90;;;4.90;99.90;;;;;;5116805;28;20056;-75
2023/03/16 07:12:08;;;;;;;14.10;3.95;;;5.10;99.90;;;;;;5116771;28;20070;-78
2023/03/16 07:14:34;;;;;;;9.88;3.67;;;5.10;99.90;;;;;;5116953;28;20522;-77
2023/03/16 07:17:00;;;;;;;12.40;4.20;;;5.10;99.90;;;;;;5098520;28;20078;-74
2023/03/16 07:19:27;;;;;;;11.40;4.07;;;5.10;99.90;;;;;;5098572;28;20051;-76
2023/03/16 07:21:53;;;;;;;11.60;3.20;;;5.10;99.90;;;;;;5117040;28;20112;-75
2023/03/16 07:24:19;;;;;;;12.27;3.70;;;5.10;99.90;;;;;;5081367;28;20411;-75
2023/03/16 07:26:45;;;;;;;10.88;3.67;;;5.20;99.90;;;;;;5116186;28;20055;-76
2023/03/16 07:29:12;;;;;;;16.15;3.95;;;5.20;99.90;;;;;;5116353;28;20093;-78
2023/03/16 07:31:38;;;;;;;;;;;5.20;99.90;;;;;;5117502;28;20126;-76
2023/03/16 07:34:03;;;;;;;11.85;3.17;;;5.30;99.90;;;;;;5116255;28;19985;-75
2023/03/16 07:36:30;;;;;;;10.88;4.10;;;5.30;99.90;;;;;;5080609;28;20096;-76
2023/03/16 07:38:56;;;;;;;11.70;3.90;;;5.40;99.90;;;;;;5116070;28;20044;-77
2023/03/16 07:41:21;;;;;;;12.68;3.92;;;5.40;99.90;;;;;;5098866;28;20100;-79
2023/03/16 07:43:47;;;;;;;11.55;3.90;;;5.40;99.90;;;;;;5116549;28;20039;-75
2023/03/16 07:46:13;;;;;;;11.38;3.80;;;5.40;99.90;;;;;;5097593;28;20055;-76
2023/03/16 07:48:41;;;;;;;12.32;4.05;;;5.50;99.90;;;;;;5098285;28;20130;-77
2023/03/16 07:51:08;;;;;;;16.27;4.47;;;5.50;99.90;;;;;;5081972;28;20144;-75
2023/03/16 07:53:34;;;;;;;8.25;3.50;;;5.50;99.90;;;;;;5097701;28;20094;-75
2023/03/16 07:56:00;;;;;;;12.32;3.95;;;5.60;99.90;;;;;;5081268;28;20044;-76
2023/03/16 07:58:26;;;;;;;10.77;4.03;;;5.60;99.90;;;;;;5116262;28;20044;-76
2023/03/16 08:00:58;;;;;;;15.00;4.40;;;5.70;99.90;;;;;;5097825;28;20051;-76
2023/03/16 08:03:28;;;;;;;10.10;3.95;;;5.60;99.90;;;;;;5097565;28;20059;-75
2023/03/16 08:05:55;;;;;;;9.98;3.67;;;5.60;99.90;;;;;;5115950;28;20466;-75
2023/03/16 08:08:21;;;;;;;12.88;4.57;;;5.60;99.90;;;;;;5097375;28;20079;-77
2023/03/16 08:10:48;;;;;;;16.48;5.43;;;5.60;99.90;;;;;;5115641;28;20117;-77
2023/03/16 08:13:14;;;;;;;15.45;4.75;;;5.50;99.90;;;;;;5114575;28;20047;-77
2023/03/16 08:15:41;;;;;;;13.10;4.55;;;5.60;99.90;;;;;;5115410;28;20051;-76
2023/03/16 08:18:07;;;;;;;13.55;4.95;;;5.60;99.90;;;;;;5097427;28;20391;-75
2023/03/16 08:20:33;;;;;;;12.75;4.72;;;5.60;99.90;;;;;;5081225;28;20047;-76
2023/03/16 08:22:59;;;;;;;13.63;4.50;;;5.60;99.90;;;;;;5097830;28;20047;-75
2023/03/16 08:25:25;;;;;;;11.20;4.40;;;5.50;99.90;;;;;;5115738;28;20047;-76
2023/03/16 08:27:51;;;;;;;16.93;4.77;;;5.60;99.90;;;;;;5097368;28;20044;-75
2023/03/16 08:30:17;;;;;;;15.77;4.57;;;5.60;99.90;;;;;;5097564;28;20047;-75
2023/03/16 08:32:43;;;;;;;17.90;5.68;;;5.50;99.90;;;;;;5115974;28;20285;-76
2023/03/16 08:35:15;;;;;;;16.02;3.92;;;5.60;99.90;;;;;;5097313;28;20052;-77
2023/03/16 08:37:42;;;;;;;11.93;5.10;;;5.60;99.90;;;;;;5115863;28;20062;-75
2023/03/16 08:40:19;;;;;;;14.30;4.55;;;5.50;99.90;;;;;;5096817;28;20051;-77
2023/03/16 08:42:45;;;;;;;15.82;4.22;;;5.50;99.90;;;;;;5080656;28;20142;-74
2023/03/16 08:45:11;;;;;;;18.98;5.30;;;5.60;99.90;;;;;;5079938;28;20617;-77
2023/03/16 08:47:41;;;;;;;13.03;4.47;;;5.70;99.90;;;;;;5079723;28;20043;-77
2023/03/16 08:50:08;;;;;;;14.70;4.40;;;5.70;99.90;;;;;;5096636;28;20765;-77
2023/03/16 08:52:35;;;;;;;;;;;5.50;99.90;;;;;;5080344;28;20055;-78
2023/03/16 08:55:04;;;;;;;15.02;4.60;;;5.60;99.90;;;;;;5114848;28;19920;-75
2023/03/16 08:57:32;;;;;;;21.60;5.03;;;5.70;99.90;;;;;;5114518;28;20398;-75
2023/03/16 08:59:58;;;;;;;16.77;5.20;;;5.70;99.90;;;;;;5115385;28;20387;-79
2023/03/16 09:02:24;;;;;;;20.30;5.55;;;5.70;99.90;;;;;;5114446;28;20092;-80
2023/03/16 09:04:51;;;;;;;13.88;5.45;;;5.70;99.90;;;;;;5080320;28;20044;-75
2023/03/16 09:07:17;;;;;;;23.48;6.03;;;5.80;99.90;;;;;;5096485;28;20467;-77
2023/03/16 09:09:44;;;;;;;15.48;4.15;;;5.80;99.90;;;;;;5114247;28;20494;-76
2023/03/16 09:12:12;;;;;;;14.07;4.80;;;5.90;99.90;;;;;;5096199;28;20044;-77
2023/03/16 09:14:38;;;;;;;17.48;5.95;;;5.90;99.90;;;;;;5114218;28;20046;-76
2023/03/16 09:17:06;;;;;;;17.13;6.40;;;5.80;99.90;;;;;;5114244;28;20051;-77
2023/03/16 09:19:33;;;;;;;22.35;6.00;;;5.80;99.90;;;;;;5114488;28;20336;-76
2023/03/16 09:21:59;;;;;;;15.25;4.75;;;5.90;99.90;;;;;;5114300;28;20051;-79
2023/03/16 09:24:24;;;;;;;17.23;6.35;;;5.90;99.90;;;;;;5096562;28;20047;-76
2023/03/16 09:26:51;;;;;;;17.30;6.00;;;5.80;99.90;;;;;;5079212;28;20135;-77
2023/03/16 09:29:17;;;;;;;16.63;5.15;;;5.80;99.90;;;;;;5095913;28;20426;-77
2023/03/16 09:31:44;;;;;;;22.38;7.10;;;5.90;99.90;;;;;;5095907;28;20096;-77
2023/03/16 09:34:10;;;;;;;17.38;5.85;;;;;;;;;;5095993;28;20391;-76
2023/03/16 09:36:36;;;;;;;21.73;6.80;;;6.10;99.90;;;;;;5096064;28;20364;-75
2023/03/16 09:39:02;;;;;;;20.20;6.10;;;6.40;99.90;;;;;;5113733;28;20042;-77
2023/03/16 09:41:43;;;;;;;20.15;6.35;;;;;;;;;;5078987;28;20394;-76
2023/03/16 09:44:21;;;;;;;16.88;5.80;;;;;;;;;;5078695;28;20047;-79
2023/03/16 09:46:50;;;;;;;22.70;6.53;;;6.60;99.90;;;;;;5095582;28;20048;-77
2023/03/16 09:49:19;;;;;;;21.00;6.65;;;6.50;99.90;;;;;;5113643;28;20039;-75
2023/03/16 09:52:32;;;;;;;20.98;6.80;;;6.80;99.90;;;;;;5095432;28;20050;-79
2023/03/16 09:55:32;;;;;;;17.02;4.82;;;6.50;99.90;;;;;;5095634;28;20043;-76
2023/03/16 09:57:59;;;;;;;25.88;7.50;;;6.60;99.90;;;;;;5079911;28;20079;-77
2023/03/16 10:00:32;;;;;;;22.75;7.30;;;6.80;99.90;;;;;;5118454;28;20047;-76
2023/03/16 10:03:29;;;;;;;20.33;6.22;;;6.50;99.90;;;;;;5102802;28;20107;-77
2023/03/16 10:06:03;;;;;;;22.38;5.72;;;6.70;99.90;;;;;;5120504;28;20099;-80
2023/03/16 10:08:38;;;;;;;28.92;6.18;;;6.80;99.90;;;;;;5120061;28;20044;-75
2023/03/16 10:11:27;;;;;;;22.17;6.53;;;6.80;99.90;;;;;;5085475;28;20057;-78
2023/03/16 10:14:18;;;;;;;24.30;6.75;;;6.80;99.90;;;;;;5102692;28;20382;-78
2023/03/16 10:17:09;;;;;;;24.95;6.93;;;6.80;99.90;;;;;;5085296;28;20048;-76
2023/03/16 10:19:44;;;;;;;20.35;5.57;;;6.90;99.90;;;;;;5118957;28;20046;-79
2023/03/16 10:22:25;;;;;;;23.25;6.05;;;7.00;99.90;;;;;;5085867;28;20103;-76
2023/03/16 10:25:15;;;;;;;20.95;6.22;;;7.00;99.90;;;;;;5120338;28;20085;-77
2023/03/16 10:27:43;;;;;;;28.98;8.52;;;7.10;99.90;;;;;;5102888;28;20070;-76
2023/03/16 10:30:23;;;;;;;25.45;7.28;;;7.10;99.90;;;;;;5120252;28;20058;-77
2023/03/16 10:32:49;;;;;;;20.15;6.82;;;7.10;99.90;;;;;;5102835;28;20044;-80
2023/03/16 10:35:43;;;;;;;25.83;6.93;;;7.20;99.90;;;;;;5120399;28;20051;-77
2023/03/16 10:38:29;;;;;;;18.75;5.45;;;7.20;99.90;;;;;;5085409;28;20043;-81
2023/03/16 10:40:56;;;;;;;19.40;5.28;;;7.40;99.90;;;;;;5120836;28;20055;-75
2023/03/16 10:43:24;;;;;;;23.38;7.05;;;7.30;99.90;;;;;;5120167;28;20360;-77
2023/03/16 10:45:49;;;;;;;;;;;7.40;99.90;;;;;;5120379;28;20189;-76
2023/03/16 10:48:17;;;;;;;19.15;6.38;;;7.50;99.90;;;;;;5102151;28;20016;-76
2023/03/16 10:50:53;;;;;;;24.90;6.18;;;7.50;99.90;;;;;;5120140;28;20112;-77
2023/03/16 10:53:35;;;;;;;22.30;5.60;;;7.50;99.90;;;;;;5120345;28;20479;-76
2023/03/16 10:56:17;;;;;;;24.30;6.82;;;7.50;99.90;;;;;;5120424;28;20043;-76
2023/03/16 10:58:44;;;;;;;20.73;5.45;;;7.60;99.90;;;;;;5120499;28;20468;-75
2023/03/16 11:01:16;;;;;;;16.90;5.20;;;7.60;99.90;;;;;;5102084;28;20059;-78
2023/03/16 11:03:49;;;;;;;26.45;5.53;;;7.70;99.90;;;;;;5101917;28;20112;-77
2023/03/16 11:06:21;;;;;;;17.92;5.57;;;7.80;99.90;;;;;;5101790;28;20043;-76
2023/03/16 11:08:47;;;;;;;25.17;5.72;;;7.60;99.90;;;;;;5101968;28;20062;-77
2023/03/16 11:11:18;;;;;;;19.25;5.70;;;7.70;99.90;;;;;;5119227;28;20422;-78
2023/03/16 11:13:47;;;;;;;22.17;6.00;;;7.80;99.90;;;;;;5098577;28;20054;-78
2023/03/16 11:16:20;;;;;;;18.75;5.93;;;7.80;99.90;;;;;;5099494;28;20361;-78
2023/03/16 11:19:02;;;;;;;28.30;7.32;;;7.90;99.90;;;;;;5099128;28;20086;-76
2023/03/16 11:21:50;;;;;;;23.45;6.63;;;7.90;99.90;;;;;;5099425;28;20052;-79
2023/03/16 11:24:47;;;;;;;23.35;5.88;;;8.00;99.90;;;;;;5098600;28;20083;-76
2023/03/16 11:27:32;;;;;;;28.73;6.60;;;8.10;99.90;;;;;;5093428;28;20051;-77
2023/03/16 11:30:22;;;;;;;30.40;6.45;;;8.20;99.90;;;;;;5117192;28;20132;-78
2023/03/16 11:32:52;;;;;;;26.50;7.38;;;8.20;99.90;;;;;;5098138;28;20440;-78
2023/03/16 11:35:21;;;;;;;22.50;6.32;;;8.30;99.90;;;;;;5098144;28;20138;-77
2023/03/16 11:37:59;;;;;;;25.52;6.85;;;8.30;99.90;;;;;;5097977;28;20047;-76
2023/03/16 11:40:55;;;;;;;25.55;7.50;;;8.40;99.90;;;;;;5116746;28;20501;-77
2023/03/16 11:43:39;;;;;;;21.83;7.13;;;8.40;99.90;;;;;;5116185;28;20138;-75
2023/03/16 11:46:15;;;;;;;22.02;7.18;;;8.60;99.90;;;;;;5081352;28;20429;-78
2023/03/16 11:48:41;;;;;;;26.00;7.60;;;8.70;99.90;;;;;;5097981;28;20052;-76
2023/03/16 11:51:22;;;;;;;27.65;8.10;;;9.00;99.90;;;;;;5116833;28;20048;-76
2023/03/16 11:54:12;;;;;;;19.52;5.45;;;9.00;99.90;;;;;;5098474;28;20082;-77
2023/03/16 11:56:57;;;;;;;23.77;5.95;;;9.20;99.90;;;;;;5116996;28;20047;-77
2023/03/16 11:59:47;;;;;;;25.05;7.03;;;9.20;99.90;;;;;;5115958;28;20050;-77
2023/03/16 12:02:42;;;;;;;19.30;5.38;;;9.20;99.90;;;;;;5098505;28;20143;-76
2023/03/16 12:05:35;;;;;;;19.63;5.80;;;9.20;99.90;;;;;;5107581;28;20059;-76
2023/03/16 12:08:30;;;;;;;27.83;7.22;;;9.40;99.90;;;;;;5115811;28;20036;-76
2023/03/16 12:11:03;;;;;;;24.65;6.80;;;9.40;99.90;;;;;;5068624;28;20063;-77
2023/03/16 12:13:47;;;;;;;20.98;5.70;;;9.50;99.90;;;;;;5095810;28;20389;-76
2023/03/16 12:16:24;;;;;;;19.08;4.57;;;9.50;99.90;;;;;;5094645;28;20118;-77
2023/03/16 12:18:52;;;;;;;;;;;9.70;99.90;;;;;;5096115;28;20406;-78
2023/03/16 12:21:38;;;;;;;22.92;5.28;;;9.70;99.90;;;;;;5095142;28;19927;-77
2023/03/16 12:24:09;;;;;;;19.98;5.85;;;9.60;99.90;;;;;;5093752;28;20059;-77
2023/03/16 12:26:40;;;;;;;18.88;5.43;;;9.60;99.90;;;;;;5095511;28;20069;-77
2023/03/16 12:29:13;;;;;;;15.80;5.68;;;9.60;99.90;;;;;;5094035;28;20051;-80
2023/03/16 12:31:44;;;;;;;22.95;5.82;;;9.70;99.90;;;;;;5094016;28;20492;-77
2023/03/16 12:34:19;;;;;;;21.17;5.63;;;9.60;99.90;;;;;;5093604;28;20070;-75
2023/03/16 12:37:09;;;;;;;16.05;5.20;;;9.60;99.90;;;;;;5094632;28;20043;-75
2023/03/16 12:39:47;;;;;;;15.98;5.38;;;9.60;99.90;;;;;;5094889;28;20400;-76
2023/03/16 12:42:50;;;;;;;14.48;4.90;;;9.60;99.90;;;;;;5094638;28;20047;-76
2023/03/16 12:45:42;;;;;;;19.77;4.47;;;9.70;99.90;;;;;;5094793;28;20075;-78
2023/03/16 12:48:28;;;;;;;19.45;5.63;;;9.70;99.90;;;;;;5095271;28;20109;-77
2023/03/16 12:50:58;;;;;;;21.02;5.35;;;9.70;99.90;;;;;;5093309;28;20052;-79
2023/03/16 12:53:50;;;;;;;23.83;5.82;;;9.70;99.90;;;;;;5093083;28;20048;-75
2023/03/16 12:56:29;;;;;;;16.10;4.88;;;9.80;99.90;;;;;;5086847;28;20416;-76
2023/03/16 12:58:59;;;;;;;16.75;5.60;;;9.70;99.90;;;;;;5093543;28;20388;-78
2023/03/16 13:01:28;;;;;;;18.00;4.80;;;9.80;99.90;;;;;;5094286;28;20051;-77
2023/03/16 13:04:09;;;;;;;13.15;4.47;;;9.90;99.90;;;;;;5094214;28;20050;-76
2023/03/16 13:06:35;;;;;;;18.02;4.65;;;9.90;99.90;;;;;;5093638;28;20052;-76